createdAt,value
2017-04-17T00:00:26.894Z,6.77
2017-04-17T00:01:07.778Z,6.7
2017-04-17T00:01:48.639Z,6.72
2017-04-17T00:02:29.529Z,6.69
2017-04-17T00:03:10.380Z,6.69
2017-04-17T00:03:51.259Z,6.74
2017-04-17T00:04:32.183Z,6.66
2017-04-17T00:05:13.054Z,6.74
2017-04-17T00:05:53.920Z,6.69
2017-04-17T00:06:34.801Z,6.74
2017-04-17T00:07:15.675Z,6.63
2017-04-17T00:07:56.568Z,6.69
2017-04-17T00:08:37.451Z,6.7
2017-04-17T00:09:18.328Z,6.7
2017-04-17T00:09:59.215Z,6.7
2017-04-17T00:10:40.092Z,6.67
2017-04-17T00:11:20.954Z,6.64
2017-04-17T00:12:01.811Z,6.72
2017-04-17T00:12:42.685Z,6.66
2017-04-17T00:13:23.524Z,6.63
2017-04-17T00:14:04.379Z,6.64
2017-04-17T00:14:45.237Z,6.57
2017-04-17T00:15:26.069Z,6.6
2017-04-17T00:16:06.940Z,6.69
2017-04-17T00:16:47.847Z,6.52
2017-04-17T00:17:28.744Z,6.64
2017-04-17T00:18:09.620Z,6.56
2017-04-17T00:18:50.493Z,6.57
2017-04-17T00:19:31.365Z,6.64
2017-04-17T00:20:12.243Z,6.7
2017-04-17T00:20:53.129Z,6.6
2017-04-17T00:21:34.006Z,6.63
2017-04-17T00:22:14.879Z,6.31
2017-04-17T00:22:55.757Z,6.41
2017-04-17T00:23:36.640Z,6.41
2017-04-17T00:24:17.531Z,6.56
2017-04-17T00:24:58.411Z,6.66
2017-04-17T00:25:39.267Z,6.64
2017-04-17T00:26:20.134Z,6.7
2017-04-17T00:27:01.006Z,6.74
2017-04-17T00:27:41.887Z,6.69
2017-04-17T00:28:22.765Z,6.67
2017-04-17T00:29:03.640Z,6.63
2017-04-17T00:29:44.534Z,6.78
2017-04-17T00:30:25.389Z,6.72
2017-04-17T00:31:06.265Z,6.79
2017-04-17T00:31:47.140Z,6.7
2017-04-17T00:32:28.002Z,6.72
2017-04-17T00:33:08.879Z,6.69
2017-04-17T00:33:49.752Z,6.64
2017-04-17T00:34:30.640Z,6.69
2017-04-17T00:35:11.511Z,6.78
2017-04-17T00:35:53.111Z,6.74
2017-04-17T00:36:33.967Z,6.64
2017-04-17T00:37:14.846Z,6.57
2017-04-17T00:37:55.721Z,6.56
2017-04-17T00:38:36.579Z,6.57
2017-04-17T00:39:17.444Z,6.63
2017-04-17T00:39:58.328Z,6.63
2017-04-17T00:40:39.207Z,6.64
2017-04-17T00:41:20.142Z,6.51
2017-04-17T00:42:01.036Z,6.52
2017-04-17T00:42:41.908Z,6.6
2017-04-17T00:43:22.802Z,6.64
2017-04-17T00:44:03.678Z,6.49
2017-04-17T00:44:44.544Z,6.42
2017-04-17T00:45:25.386Z,6.44
2017-04-17T00:46:06.258Z,6.41
2017-04-17T00:46:47.139Z,6.39
2017-04-17T00:47:28.006Z,6.59
2017-04-17T00:48:08.859Z,6.52
2017-04-17T00:48:49.736Z,6.64
2017-04-17T00:49:30.606Z,6.62
2017-04-17T00:50:11.485Z,6.64
2017-04-17T00:50:52.358Z,6.66
2017-04-17T00:51:33.233Z,6.62
2017-04-17T00:52:14.159Z,6.72
2017-04-17T00:52:55.026Z,6.72
2017-04-17T00:53:35.895Z,6.69
2017-04-17T00:54:16.787Z,6.78
2017-04-17T00:54:57.662Z,6.77
2017-04-17T00:55:38.543Z,6.72
2017-04-17T00:56:19.416Z,6.7
2017-04-17T00:57:00.302Z,6.79
2017-04-17T00:57:41.181Z,6.75
2017-04-17T00:58:22.045Z,6.79
2017-04-17T00:59:02.906Z,6.79
2017-04-17T00:59:43.784Z,6.75
2017-04-17T01:00:24.629Z,6.72
2017-04-17T01:01:05.505Z,6.74
2017-04-17T01:01:46.377Z,6.69
2017-04-17T01:02:27.249Z,6.66
2017-04-17T01:03:08.125Z,6.66
2017-04-17T01:03:49.008Z,6.74
2017-04-17T01:04:29.890Z,6.66
2017-04-17T01:05:10.734Z,6.72
2017-04-17T01:05:51.612Z,6.63
2017-04-17T01:06:32.461Z,6.64
2017-04-17T01:07:13.338Z,6.59
2017-04-17T01:07:54.200Z,6.72
2017-04-17T01:08:35.071Z,6.72
2017-04-17T01:09:15.969Z,6.78
2017-04-17T01:09:56.830Z,6.72
2017-04-17T01:10:37.704Z,6.72
2017-04-17T01:11:18.587Z,6.72
2017-04-17T01:11:59.458Z,6.75
2017-04-17T01:12:40.328Z,6.7
2017-04-17T01:13:21.188Z,6.7
2017-04-17T01:14:02.008Z,6.42
2017-04-17T01:14:42.887Z,6.31
2017-04-17T01:15:23.706Z,6.51
2017-04-17T01:16:04.578Z,6.42
2017-04-17T01:16:45.441Z,6.42
2017-04-17T01:17:26.305Z,6.49
2017-04-17T01:18:07.194Z,6.54
2017-04-17T01:18:48.056Z,6.54
2017-04-17T01:19:28.958Z,6.62
2017-04-17T01:20:09.831Z,6.54
2017-04-17T01:20:50.698Z,6.54
2017-04-17T01:21:31.562Z,6.63
2017-04-17T01:22:12.436Z,6.54
2017-04-17T01:22:53.304Z,6.42
2017-04-17T01:23:34.193Z,6.45
2017-04-17T01:24:15.061Z,6.38
2017-04-17T01:24:55.926Z,6.39
2017-04-17T01:25:36.806Z,6.42
2017-04-17T01:26:17.658Z,6.39
2017-04-17T01:26:58.541Z,6.42
2017-04-17T01:27:39.389Z,6.45
2017-04-17T01:28:20.263Z,6.41
2017-04-17T01:29:01.103Z,6.42
2017-04-17T01:29:41.946Z,6.39
2017-04-17T01:30:22.786Z,6.17
2017-04-17T01:31:03.654Z,6.27
2017-04-17T01:31:44.514Z,6.35
2017-04-17T01:32:25.370Z,6.33
2017-04-17T01:33:06.230Z,6.33
2017-04-17T01:33:47.101Z,6.28
2017-04-17T01:34:27.970Z,6.39
2017-04-17T01:35:08.851Z,6.36
2017-04-17T01:35:49.731Z,6.36
2017-04-17T01:36:30.595Z,6.38
2017-04-17T01:37:11.450Z,6.35
2017-04-17T01:37:52.321Z,6.33
2017-04-17T01:38:33.197Z,6.31
2017-04-17T01:39:14.067Z,6.3
2017-04-17T01:39:54.906Z,6.33
2017-04-17T01:40:35.763Z,6.33
2017-04-17T01:41:16.634Z,6.36
2017-04-17T01:41:57.508Z,6.38
2017-04-17T01:42:38.391Z,6.31
2017-04-17T01:43:19.274Z,6.38
2017-04-17T01:44:00.144Z,6.31
2017-04-17T01:44:40.995Z,6.35
2017-04-17T01:45:21.875Z,6.39
2017-04-17T01:46:02.740Z,6.38
2017-04-17T01:46:43.615Z,6.35
2017-04-17T01:47:24.486Z,6.3
2017-04-17T01:48:05.373Z,6.3
2017-04-17T01:48:46.228Z,6.14
2017-04-17T01:49:27.100Z,6.24
2017-04-17T01:50:07.961Z,6.22
2017-04-17T01:50:48.846Z,6.28
2017-04-17T01:51:29.721Z,6.27
2017-04-17T01:52:10.568Z,6.31
2017-04-17T01:52:51.438Z,6.36
2017-04-17T01:53:32.318Z,6.27
2017-04-17T01:54:13.203Z,6.27
2017-04-17T01:54:54.077Z,6.22
2017-04-17T01:55:34.946Z,6.3
2017-04-17T01:56:15.806Z,6.14
2017-04-17T01:56:56.668Z,6.3
2017-04-17T01:57:37.566Z,6.22
2017-04-17T01:58:18.448Z,6.28
2017-04-17T01:58:59.320Z,6.22
2017-04-17T01:59:40.185Z,6.2
2017-04-17T02:00:21.063Z,6.17
2017-04-17T02:01:01.937Z,6.24
2017-04-17T02:01:42.827Z,6.24
2017-04-17T02:02:23.702Z,6.19
2017-04-17T02:03:04.586Z,6.28
2017-04-17T02:03:45.449Z,6.27
2017-04-17T02:04:26.312Z,6.27
2017-04-17T02:05:07.204Z,6.35
2017-04-17T02:05:48.086Z,6.17
2017-04-17T02:06:28.960Z,6.2
2017-04-17T02:07:09.835Z,6.17
2017-04-17T02:07:50.715Z,6.22
2017-04-17T02:08:31.597Z,6.19
2017-04-17T02:09:12.473Z,6.22
2017-04-17T02:09:53.350Z,6.3
2017-04-17T02:10:34.228Z,6.17
2017-04-17T02:11:15.107Z,6.2
2017-04-17T02:11:55.975Z,6.26
2017-04-17T02:12:36.862Z,6.31
2017-04-17T02:13:17.761Z,6.38
2017-04-17T02:13:58.620Z,6.36
2017-04-17T02:14:39.486Z,6.3
2017-04-17T02:15:20.351Z,6.35
2017-04-17T02:16:01.237Z,6.33
2017-04-17T02:16:42.117Z,6.3
2017-04-17T02:17:22.983Z,6.24
2017-04-17T02:18:03.844Z,6.19
2017-04-17T02:18:44.718Z,6.07
2017-04-17T02:19:25.593Z,6.05
2017-04-17T02:20:06.474Z,6.08
2017-04-17T02:20:47.349Z,6.09
2017-04-17T02:21:28.240Z,6.26
2017-04-17T02:22:09.111Z,6.28
2017-04-17T02:22:49.991Z,6.31
2017-04-17T02:23:30.868Z,6.36
2017-04-17T02:24:11.750Z,6.44
2017-04-17T02:24:52.629Z,6.44
2017-04-17T02:25:33.506Z,6.42
2017-04-17T02:26:14.384Z,6.42
2017-04-17T02:26:55.269Z,6.39
2017-04-17T02:27:36.139Z,6.44
2017-04-17T02:28:17.019Z,6.51
2017-04-17T02:28:57.886Z,6.45
2017-04-17T02:29:38.751Z,6.38
2017-04-17T02:30:19.644Z,6.33
2017-04-17T02:31:00.497Z,6.33
2017-04-17T02:31:41.383Z,6.27
2017-04-17T02:32:22.253Z,6.28
2017-04-17T02:33:03.129Z,6.28
2017-04-17T02:33:44.006Z,6.3
2017-04-17T02:34:24.888Z,6.31
2017-04-17T02:35:05.769Z,6.31
2017-04-17T02:35:46.647Z,6.41
2017-04-17T02:36:27.521Z,6.33
2017-04-17T02:37:08.391Z,6.42
2017-04-17T02:37:49.260Z,6.3
2017-04-17T02:38:30.141Z,6.44
2017-04-17T02:39:11.018Z,6.3
2017-04-17T02:39:51.899Z,6.12
2017-04-17T02:40:32.764Z,6.08
2017-04-17T02:41:13.648Z,6.17
2017-04-17T02:41:54.531Z,6.31
2017-04-17T02:42:35.405Z,6.31
2017-04-17T02:43:16.278Z,6.36
2017-04-17T02:43:57.167Z,6.31
2017-04-17T02:44:38.044Z,6.45
2017-04-17T02:45:18.917Z,6.46
2017-04-17T02:45:59.816Z,6.39
2017-04-17T02:46:40.690Z,6.39
2017-04-17T02:47:21.583Z,6.46
2017-04-17T02:48:02.471Z,6.42
2017-04-17T02:48:43.353Z,6.38
2017-04-17T02:49:24.237Z,6.45
2017-04-17T02:50:05.114Z,6.39
2017-04-17T02:50:45.990Z,6.41
2017-04-17T02:51:26.848Z,6.38
2017-04-17T02:52:07.732Z,6.45
2017-04-17T02:52:48.606Z,6.38
2017-04-17T02:53:29.473Z,6.42
2017-04-17T02:54:10.335Z,6.38
2017-04-17T02:54:51.206Z,6.41
2017-04-17T02:55:32.082Z,6.31
2017-04-17T02:56:12.968Z,6.49
2017-04-17T02:56:53.833Z,6.41
2017-04-17T02:57:34.706Z,6.24
2017-04-17T02:59:13.076Z,6.16
2017-04-17T02:59:53.961Z,6.09
2017-04-17T03:00:34.870Z,5.93
2017-04-17T03:01:15.740Z,5.84
2017-04-17T03:01:56.614Z,6.08
2017-04-17T03:02:37.491Z,6.04
2017-04-17T03:03:18.361Z,6.07
2017-04-17T03:03:59.231Z,6.19
2017-04-17T03:04:40.093Z,6.07
2017-04-17T03:05:20.969Z,6.16
2017-04-17T03:06:01.849Z,6.17
2017-04-17T03:06:42.702Z,6.24
2017-04-17T03:07:23.569Z,6.24
2017-04-17T03:08:04.427Z,6.33
2017-04-17T03:08:45.307Z,6.3
2017-04-17T03:09:26.204Z,6.31
2017-04-17T03:10:07.115Z,6.28
2017-04-17T03:11:24.960Z,5.91
2017-04-17T03:12:05.837Z,5.91
2017-04-17T03:12:46.708Z,5.87
2017-04-17T03:13:27.577Z,5.99
2017-04-17T03:14:08.460Z,6.08
2017-04-17T03:14:49.344Z,6.04
2017-04-17T03:15:30.219Z,6.07
2017-04-17T03:16:11.090Z,6.08
2017-04-17T03:16:51.964Z,6.08
2017-04-17T03:17:32.822Z,6.09
2017-04-17T03:18:13.685Z,6.11
2017-04-17T03:18:54.550Z,6.08
2017-04-17T03:19:35.421Z,6.17
2017-04-17T03:20:16.290Z,6.05
2017-04-17T03:20:57.174Z,6.17
2017-04-17T03:21:38.051Z,6.22
2017-04-17T03:22:18.918Z,6.28
2017-04-17T03:22:59.784Z,6.28
2017-04-17T03:23:40.680Z,6.31
2017-04-17T03:24:21.557Z,6.3
2017-04-17T03:25:02.428Z,6.27
2017-04-17T03:25:43.302Z,6.08
2017-04-17T03:27:17.009Z,6.22
2017-04-17T03:27:57.891Z,6.24
2017-04-17T03:28:38.751Z,6.28
2017-04-17T03:29:19.666Z,6.24
2017-04-17T03:30:00.520Z,5.99
2017-04-17T03:30:41.408Z,5.93
2017-04-17T03:31:22.289Z,5.8
2017-04-17T03:32:03.168Z,6.07
2017-04-17T03:32:44.036Z,5.99
2017-04-17T03:33:24.911Z,6.07
2017-04-17T03:34:05.796Z,5.98
2017-04-17T03:34:46.687Z,5.87
2017-04-17T03:35:27.552Z,6.08
2017-04-17T03:36:08.453Z,6.05
2017-04-17T03:36:49.304Z,6.07
2017-04-17T03:37:30.180Z,6.09
2017-04-17T03:38:11.052Z,6.11
2017-04-17T03:38:51.929Z,6.05
2017-04-17T03:39:32.809Z,6.17
2017-04-17T03:40:13.679Z,6.28
2017-04-17T03:40:54.545Z,6.28
2017-04-17T03:41:35.427Z,6.26
2017-04-17T03:42:16.305Z,6.05
2017-04-17T03:42:57.179Z,5.9
2017-04-17T03:43:38.037Z,6.04
2017-04-17T03:44:18.917Z,6.09
2017-04-17T03:44:59.798Z,6.08
2017-04-17T03:45:40.682Z,6.17
2017-04-17T03:46:21.558Z,6.12
2017-04-17T03:47:02.435Z,6.19
2017-04-17T03:47:43.287Z,6.07
2017-04-17T03:48:24.170Z,6.08
2017-04-17T03:49:05.046Z,6.08
2017-04-17T03:49:45.939Z,6.12
2017-04-17T03:50:26.789Z,6.14
2017-04-17T03:51:07.655Z,6.14
2017-04-17T03:51:48.528Z,6.16
2017-04-17T03:52:29.392Z,6.14
2017-04-17T03:53:10.294Z,6.09
2017-04-17T03:53:51.181Z,6.05
2017-04-17T03:54:32.039Z,6.05
2017-04-17T03:55:12.925Z,6.02
2017-04-17T03:55:54.594Z,5.98
2017-04-17T03:56:35.482Z,6.12
2017-04-17T03:57:16.406Z,6.14
2017-04-17T03:57:57.276Z,6.08
2017-04-17T03:58:38.133Z,5.98
2017-04-17T03:59:19.010Z,5.9
2017-04-17T03:59:59.890Z,5.9
2017-04-17T04:00:40.775Z,5.86
2017-04-17T04:01:21.655Z,5.98
2017-04-17T04:02:02.528Z,5.82
2017-04-17T04:02:43.392Z,5.98
2017-04-17T04:03:24.257Z,5.94
2017-04-17T04:04:05.144Z,5.9
2017-04-17T04:04:46.009Z,5.86
2017-04-17T04:05:26.882Z,6.01
2017-04-17T04:06:07.774Z,5.9
2017-04-17T04:06:48.650Z,5.98
2017-04-17T04:07:29.518Z,5.84
2017-04-17T04:08:10.386Z,5.9
2017-04-17T04:08:51.255Z,5.76
2017-04-17T04:09:32.121Z,5.72
2017-04-17T04:10:12.999Z,5.73
2017-04-17T04:10:53.875Z,5.84
2017-04-17T04:11:34.758Z,5.9
2017-04-17T04:12:15.664Z,5.84
2017-04-17T04:12:56.534Z,5.83
2017-04-17T04:13:37.391Z,5.86
2017-04-17T04:14:18.264Z,5.83
2017-04-17T04:14:59.112Z,5.9
2017-04-17T04:15:39.988Z,5.89
2017-04-17T04:16:20.865Z,5.84
2017-04-17T04:17:01.740Z,5.73
2017-04-17T04:17:42.618Z,5.73
2017-04-17T04:18:23.495Z,5.69
2017-04-17T04:19:04.368Z,5.84
2017-04-17T04:19:45.240Z,5.8
2017-04-17T04:20:26.118Z,5.89
2017-04-17T04:21:06.997Z,5.87
2017-04-17T04:21:47.870Z,5.87
2017-04-17T04:22:28.748Z,5.84
2017-04-17T04:23:09.623Z,5.84
2017-04-17T04:23:50.499Z,5.84
2017-04-17T04:24:31.388Z,5.82
2017-04-17T04:25:12.274Z,5.76
2017-04-17T04:25:53.143Z,5.75
2017-04-17T04:26:34.028Z,5.83
2017-04-17T04:27:14.903Z,5.73
2017-04-17T04:27:55.777Z,5.73
2017-04-17T04:28:36.650Z,5.69
2017-04-17T04:29:17.524Z,5.72
2017-04-17T04:29:58.395Z,5.84
2017-04-17T04:30:39.257Z,5.73
2017-04-17T04:31:20.130Z,5.82
2017-04-17T04:32:01.011Z,5.76
2017-04-17T04:32:41.885Z,5.87
2017-04-17T04:33:22.754Z,5.76
2017-04-17T04:34:03.628Z,5.75
2017-04-17T04:34:44.506Z,5.72
2017-04-17T04:35:25.398Z,5.72
2017-04-17T04:36:06.277Z,5.83
2017-04-17T04:36:47.164Z,5.84
2017-04-17T04:37:28.044Z,5.83
2017-04-17T04:38:08.939Z,5.8
2017-04-17T04:38:49.819Z,5.8
2017-04-17T04:39:30.689Z,5.8
2017-04-17T04:40:11.559Z,5.8
2017-04-17T04:40:52.433Z,5.69
2017-04-17T04:41:33.302Z,5.9
2017-04-17T04:42:14.180Z,5.8
2017-04-17T04:42:55.066Z,5.8
2017-04-17T04:43:35.939Z,5.72
2017-04-17T04:44:16.808Z,5.56
2017-04-17T04:44:57.686Z,5.59
2017-04-17T04:45:38.542Z,5.57
2017-04-17T04:46:19.429Z,5.65
2017-04-17T04:47:00.311Z,5.57
2017-04-17T04:47:41.193Z,5.61
2017-04-17T04:48:22.076Z,5.59
2017-04-17T04:49:02.958Z,5.66
2017-04-17T04:49:43.836Z,5.73
2017-04-17T04:50:24.709Z,5.71
2017-04-17T04:51:05.590Z,5.73
2017-04-17T04:51:46.469Z,5.69
2017-04-17T04:52:27.375Z,5.57
2017-04-17T04:53:08.251Z,5.61
2017-04-17T04:53:49.121Z,5.73
2017-04-17T04:54:29.995Z,5.83
2017-04-17T04:55:10.882Z,5.86
2017-04-17T04:55:51.762Z,5.94
2017-04-17T04:56:32.638Z,6.05
2017-04-17T04:57:13.514Z,6.02
2017-04-17T04:57:54.385Z,6.11
2017-04-17T04:58:35.258Z,6.04
2017-04-17T04:59:16.138Z,6.05
2017-04-17T04:59:57.018Z,6.01
2017-04-17T05:00:37.893Z,5.9
2017-04-17T05:01:18.782Z,5.83
2017-04-17T05:01:59.678Z,5.87
2017-04-17T05:02:40.546Z,5.69
2017-04-17T05:03:21.439Z,5.73
2017-04-17T05:04:02.309Z,5.68
2017-04-17T05:04:43.180Z,5.66
2017-04-17T05:05:24.876Z,5.68
2017-04-17T05:06:05.776Z,5.65
2017-04-17T05:06:46.662Z,5.59
2017-04-17T05:07:27.539Z,5.65
2017-04-17T05:08:08.415Z,5.57
2017-04-17T05:08:49.313Z,5.53
2017-04-17T05:09:30.191Z,5.66
2017-04-17T05:10:11.064Z,5.82
2017-04-17T05:10:51.944Z,5.72
2017-04-17T05:11:32.820Z,5.75
2017-04-17T05:12:13.699Z,5.76
2017-04-17T05:12:54.598Z,5.72
2017-04-17T05:13:35.449Z,5.69
2017-04-17T05:14:16.325Z,5.72
2017-04-17T05:14:57.209Z,5.71
2017-04-17T05:15:38.086Z,5.73
2017-04-17T05:16:18.950Z,5.69
2017-04-17T05:16:59.819Z,5.79
2017-04-17T05:17:40.694Z,5.83
2017-04-17T05:18:21.554Z,5.82
2017-04-17T05:19:02.438Z,5.71
2017-04-17T05:19:43.319Z,5.8
2017-04-17T05:20:24.195Z,5.72
2017-04-17T05:21:05.086Z,5.89
2017-04-17T05:21:45.971Z,5.83
2017-04-17T05:22:26.858Z,5.8
2017-04-17T05:23:07.721Z,5.84
2017-04-17T05:23:48.602Z,5.87
2017-04-17T05:24:29.474Z,5.8
2017-04-17T05:25:10.366Z,5.72
2017-04-17T05:25:51.250Z,5.71
2017-04-17T05:26:32.114Z,5.89
2017-04-17T05:27:12.982Z,5.8
2017-04-17T05:27:53.851Z,5.84
2017-04-17T05:28:34.712Z,5.73
2017-04-17T05:29:15.592Z,5.79
2017-04-17T05:29:56.481Z,5.84
2017-04-17T05:30:37.357Z,5.86
2017-04-17T05:31:18.244Z,5.91
2017-04-17T05:31:59.121Z,5.93
2017-04-17T05:32:39.997Z,5.9
2017-04-17T05:33:20.874Z,5.91
2017-04-17T05:34:01.750Z,6.04
2017-04-17T05:34:42.616Z,5.76
2017-04-17T05:35:23.549Z,5.8
2017-04-17T05:36:04.428Z,5.71
2017-04-17T05:36:45.297Z,5.72
2017-04-17T05:37:26.162Z,5.82
2017-04-17T05:38:07.036Z,5.8
2017-04-17T05:38:47.920Z,5.71
2017-04-17T05:39:28.793Z,5.75
2017-04-17T05:40:09.671Z,5.75
2017-04-17T05:40:50.552Z,5.72
2017-04-17T05:41:31.429Z,5.66
2017-04-17T05:42:12.311Z,5.72
2017-04-17T05:42:53.185Z,5.72
2017-04-17T05:43:34.078Z,5.75
2017-04-17T05:44:14.938Z,5.83
2017-04-17T05:44:55.789Z,5.76
2017-04-17T05:45:36.660Z,5.75
2017-04-17T05:46:17.533Z,5.75
2017-04-17T05:46:58.412Z,5.73
2017-04-17T05:47:39.271Z,5.86
2017-04-17T05:48:20.177Z,5.9
2017-04-17T05:49:01.054Z,5.89
2017-04-17T05:49:41.943Z,5.82
2017-04-17T05:50:22.824Z,5.73
2017-04-17T05:51:03.709Z,5.82
2017-04-17T05:51:44.590Z,5.79
2017-04-17T05:52:25.474Z,5.76
2017-04-17T05:53:06.363Z,5.72
2017-04-17T05:53:47.237Z,5.79
2017-04-17T05:54:28.125Z,5.76
2017-04-17T05:55:08.981Z,5.73
2017-04-17T05:55:49.856Z,5.84
2017-04-17T05:56:30.728Z,5.83
2017-04-17T05:57:11.594Z,5.8
2017-04-17T05:57:52.475Z,5.83
2017-04-17T05:58:33.354Z,5.72
2017-04-17T05:59:14.223Z,5.86
2017-04-17T05:59:55.087Z,5.83
2017-04-17T06:00:35.958Z,5.94
2017-04-17T06:01:16.836Z,5.9
2017-04-17T06:01:57.712Z,6.04
2017-04-17T06:02:38.602Z,6.08
2017-04-17T06:03:19.509Z,5.87
2017-04-17T06:04:00.389Z,5.9
2017-04-17T06:04:41.270Z,6.09
2017-04-17T06:05:22.131Z,6.17
2017-04-17T06:06:03.018Z,6.11
2017-04-17T06:06:43.866Z,6.05
2017-04-17T06:07:24.743Z,5.97
2017-04-17T06:08:05.691Z,5.84
2017-04-17T06:08:46.502Z,5.8
2017-04-17T06:09:27.375Z,5.69
2017-04-17T06:10:08.237Z,5.8
2017-04-17T06:10:49.106Z,5.86
2017-04-17T06:11:29.979Z,5.8
2017-04-17T06:12:10.843Z,5.68
2017-04-17T06:12:51.721Z,5.76
2017-04-17T06:13:32.599Z,5.83
2017-04-17T06:14:13.479Z,5.83
2017-04-17T06:14:54.363Z,5.79
2017-04-17T06:15:35.224Z,5.76
2017-04-17T06:16:16.095Z,5.86
2017-04-17T06:16:56.977Z,5.83
2017-04-17T06:17:37.868Z,5.84
2017-04-17T06:18:18.737Z,5.87
2017-04-17T06:18:59.615Z,5.86
2017-04-17T06:19:40.459Z,5.87
2017-04-17T06:20:21.329Z,5.9
2017-04-17T06:21:02.190Z,5.9
2017-04-17T06:21:43.053Z,5.9
2017-04-17T06:22:23.935Z,5.94
2017-04-17T06:23:04.806Z,6.04
2017-04-17T06:23:45.682Z,6.07
2017-04-17T06:24:26.561Z,6.19
2017-04-17T06:25:07.438Z,6.16
2017-04-17T06:25:48.289Z,6.3
2017-04-17T06:26:29.167Z,6.31
2017-04-17T06:27:10.039Z,6.3
2017-04-17T06:27:50.927Z,6.33
2017-04-17T06:28:31.785Z,6.36
2017-04-17T06:29:12.657Z,6.39
2017-04-17T06:29:53.533Z,6.39
2017-04-17T06:30:34.412Z,6.44
2017-04-17T06:31:15.260Z,6.46
2017-04-17T06:31:56.141Z,6.42
2017-04-17T06:32:37.030Z,6.49
2017-04-17T06:33:17.906Z,6.35
2017-04-17T06:33:58.781Z,6.31
2017-04-17T06:34:39.648Z,6.27
2017-04-17T06:35:20.525Z,6.17
2017-04-17T06:36:01.394Z,6.07
2017-04-17T06:36:42.284Z,6.11
2017-04-17T06:37:23.164Z,6.02
2017-04-17T06:38:04.043Z,6.07
2017-04-17T06:38:44.898Z,6.04
2017-04-17T06:39:25.760Z,6.09
2017-04-17T06:40:06.637Z,6.11
2017-04-17T06:40:47.572Z,6.09
2017-04-17T06:41:28.457Z,6.17
2017-04-17T06:42:09.346Z,6.2
2017-04-17T06:42:50.234Z,6.19
2017-04-17T06:43:31.109Z,6.3
2017-04-17T06:44:11.997Z,6.3
2017-04-17T06:44:52.877Z,6.31
2017-04-17T06:45:33.745Z,6.33
2017-04-17T06:46:14.627Z,6.31
2017-04-17T06:46:55.499Z,6.33
2017-04-17T06:47:36.375Z,6.41
2017-04-17T06:48:17.274Z,6.46
2017-04-17T06:48:58.189Z,6.62
2017-04-17T06:49:39.038Z,6.63
2017-04-17T06:50:19.907Z,6.7
2017-04-17T06:51:00.833Z,6.75
2017-04-17T06:51:41.708Z,6.75
2017-04-17T06:52:22.574Z,6.7
2017-04-17T06:53:03.467Z,6.67
2017-04-17T06:53:44.356Z,6.69
2017-04-17T06:54:25.241Z,6.72
2017-04-17T06:55:06.106Z,6.72
2017-04-17T06:55:46.982Z,6.63
2017-04-17T06:56:27.871Z,6.63
2017-04-17T06:57:08.755Z,6.56
2017-04-17T06:57:49.632Z,6.72
2017-04-17T06:58:30.495Z,6.78
2017-04-17T06:59:11.400Z,6.7
2017-04-17T06:59:52.290Z,6.74
2017-04-17T07:00:33.153Z,6.7
2017-04-17T07:01:14.032Z,6.84
2017-04-17T07:01:54.905Z,6.81
2017-04-17T07:02:35.791Z,6.85
2017-04-17T07:03:16.663Z,6.87
2017-04-17T07:03:57.538Z,6.87
2017-04-17T07:04:38.424Z,7.03
2017-04-17T07:05:19.296Z,7.02
2017-04-17T07:06:00.176Z,7.1
2017-04-17T07:06:41.066Z,7.11
2017-04-17T07:07:21.971Z,7.24
2017-04-17T07:08:02.862Z,7.24
2017-04-17T07:08:43.754Z,7.23
2017-04-17T07:09:24.623Z,7.23
2017-04-17T07:10:05.502Z,7.33
2017-04-17T07:10:46.393Z,7.36
2017-04-17T07:11:27.274Z,7.32
2017-04-17T07:12:08.157Z,7.31
2017-04-17T07:12:49.033Z,7.2
2017-04-17T07:13:29.934Z,7.2
2017-04-17T07:14:10.809Z,7.2
2017-04-17T07:14:51.717Z,7.31
2017-04-17T07:15:32.559Z,7.35
2017-04-17T07:16:13.429Z,7.47
2017-04-17T07:16:54.307Z,7.48
2017-04-17T07:17:35.189Z,7.54
2017-04-17T07:18:16.068Z,7.53
2017-04-17T07:18:56.946Z,7.58
2017-04-17T07:19:37.815Z,7.57
2017-04-17T07:20:18.719Z,7.61
2017-04-17T07:20:59.632Z,7.72
2017-04-17T07:21:40.508Z,7.83
2017-04-17T07:22:21.409Z,7.95
2017-04-17T07:23:02.299Z,7.83
2017-04-17T07:23:43.171Z,7.79
2017-04-17T07:24:24.042Z,7.97
2017-04-17T07:25:04.917Z,7.69
2017-04-17T07:25:45.793Z,7.79
2017-04-17T07:26:26.677Z,7.83
2017-04-17T07:27:07.546Z,7.7
2017-04-17T07:27:48.420Z,7.67
2017-04-17T07:28:29.307Z,7.69
2017-04-17T07:29:10.195Z,7.72
2017-04-17T07:29:51.069Z,7.82
2017-04-17T07:30:31.985Z,7.77
2017-04-17T07:31:12.871Z,7.8
2017-04-17T07:31:53.748Z,7.9
2017-04-17T07:32:34.624Z,7.95
2017-04-17T07:33:15.497Z,7.82
2017-04-17T07:33:56.382Z,7.75
2017-04-17T07:34:37.267Z,7.7
2017-04-17T07:35:18.145Z,7.72
2017-04-17T07:35:59.021Z,7.77
2017-04-17T07:36:39.921Z,7.7
2017-04-17T07:37:20.801Z,7.66
2017-04-17T07:38:01.679Z,7.66
2017-04-17T07:38:42.552Z,7.63
2017-04-17T07:39:23.433Z,7.75
2017-04-17T07:40:04.322Z,7.72
2017-04-17T07:40:45.201Z,7.77
2017-04-17T07:41:26.068Z,7.82
2017-04-17T07:42:06.942Z,8.12
2017-04-17T07:42:47.824Z,8.26
2017-04-17T07:43:28.714Z,8.24
2017-04-17T07:44:09.584Z,8.3
2017-04-17T07:44:50.460Z,8.38
2017-04-17T07:45:31.330Z,8.37
2017-04-17T07:46:12.225Z,8.08
2017-04-17T07:46:53.106Z,8.48
2017-04-17T07:47:33.984Z,8.56
2017-04-17T07:48:14.862Z,8.51
2017-04-17T07:48:55.739Z,8.44
2017-04-17T07:49:36.622Z,8.56
2017-04-17T07:50:17.513Z,8.31
2017-04-17T07:50:58.374Z,8.28
2017-04-17T07:51:39.262Z,8.38
2017-04-17T07:52:20.168Z,8.3
2017-04-17T07:53:01.119Z,8.66
2017-04-17T07:53:42.041Z,8.92
2017-04-17T07:54:22.915Z,8.69
2017-04-17T07:55:03.805Z,8.7
2017-04-17T07:55:44.691Z,8.81
2017-04-17T07:56:25.575Z,8.61
2017-04-17T07:57:06.502Z,8.51
2017-04-17T07:57:47.372Z,8.56
2017-04-17T07:58:28.239Z,8.84
2017-04-17T07:59:09.116Z,8.87
2017-04-17T07:59:50.003Z,9.11
2017-04-17T08:00:30.877Z,9.48
2017-04-17T08:01:11.760Z,9.76
2017-04-17T08:01:52.637Z,10.05
2017-04-17T08:02:33.525Z,10.09
2017-04-17T08:03:14.419Z,10.02
2017-04-17T08:03:55.311Z,10.33
2017-04-17T08:04:36.203Z,10.57
2017-04-17T08:05:17.084Z,10.44
2017-04-17T08:05:57.972Z,10.35
2017-04-17T08:06:38.846Z,10.31
2017-04-17T08:07:19.740Z,10.16
2017-04-17T08:08:00.631Z,10.1
2017-04-17T08:08:41.513Z,10.01
2017-04-17T08:09:22.386Z,10.07
2017-04-17T08:10:03.550Z,10.17
2017-04-17T08:10:44.957Z,10.13
2017-04-17T08:11:26.359Z,9.66
2017-04-17T08:12:07.742Z,9.13
2017-04-17T08:12:49.131Z,8.89
2017-04-17T08:13:30.498Z,9.11
2017-04-17T08:14:11.946Z,9.08
2017-04-17T08:14:53.283Z,9.18
2017-04-17T08:15:34.692Z,9.39
2017-04-17T08:16:16.062Z,9.22
2017-04-17T08:16:57.433Z,9.25
2017-04-17T08:17:38.841Z,9.5
2017-04-17T08:18:20.181Z,9.69
2017-04-17T08:19:01.565Z,9.47
2017-04-17T08:19:42.967Z,10.56
2017-04-17T08:20:24.373Z,10.1
2017-04-17T08:21:05.743Z,9.5
2017-04-17T08:21:47.113Z,9.59
2017-04-17T08:22:28.441Z,9.48
2017-04-17T08:23:09.859Z,9.55
2017-04-17T08:23:51.233Z,9.37
2017-04-17T08:24:32.602Z,9.25
2017-04-17T08:25:13.982Z,9.34
2017-04-17T08:25:55.387Z,9.46
2017-04-17T08:26:36.779Z,9.37
2017-04-17T08:27:18.180Z,9.25
2017-04-17T08:27:59.489Z,9.32
2017-04-17T08:28:40.751Z,9.29
2017-04-17T08:29:21.998Z,9.23
2017-04-17T08:30:03.198Z,9.26
2017-04-17T08:30:44.416Z,9.44
2017-04-17T08:31:25.621Z,9.29
2017-04-17T08:32:06.844Z,9.31
2017-04-17T08:32:48.221Z,9.37
2017-04-17T08:33:29.581Z,9.55
2017-04-17T08:34:10.892Z,9.37
2017-04-17T08:34:52.219Z,9.41
2017-04-17T08:35:33.461Z,9.41
2017-04-17T08:36:14.701Z,10.07
2017-04-17T08:36:55.899Z,10.23
2017-04-17T08:37:37.055Z,10.54
2017-04-17T08:38:18.313Z,10.63
2017-04-17T08:38:59.584Z,10.67
2017-04-17T08:39:40.723Z,10.72
2017-04-17T08:40:21.923Z,11.04
2017-04-17T08:41:02.975Z,11.37
2017-04-17T08:41:44.036Z,11.5
2017-04-17T08:42:25.117Z,11.65
2017-04-17T08:43:06.261Z,11.66
2017-04-17T08:43:47.264Z,11.84
2017-04-17T08:44:28.280Z,12
2017-04-17T08:45:09.339Z,12.21
2017-04-17T08:45:50.329Z,12.72
2017-04-17T08:46:31.326Z,12.83
2017-04-17T08:47:12.563Z,13.15
2017-04-17T08:47:53.604Z,13.33
2017-04-17T08:49:27.315Z,12.78
2017-04-17T08:50:08.414Z,12.97
2017-04-17T08:50:49.508Z,13.16
2017-04-17T08:51:30.540Z,12.68
2017-04-17T08:52:11.593Z,12.62
2017-04-17T08:52:52.601Z,12.68
2017-04-17T08:53:33.622Z,12.6
2017-04-17T08:54:14.694Z,12.55
2017-04-17T08:54:55.708Z,12.49
2017-04-17T08:55:36.755Z,12.49
2017-04-17T08:56:17.759Z,12.28
2017-04-17T08:56:58.772Z,12.2
2017-04-17T08:57:39.721Z,11.51
2017-04-17T08:58:20.640Z,10.72
2017-04-17T08:59:01.541Z,10.53
2017-04-17T08:59:42.431Z,10.33
2017-04-17T09:00:23.315Z,9.92
2017-04-17T09:01:04.191Z,9.69
2017-04-17T09:01:45.096Z,10.02
2017-04-17T09:02:25.985Z,10.2
2017-04-17T09:04:04.423Z,10.4
2017-04-17T09:04:45.243Z,10.46
2017-04-17T09:05:26.120Z,10.16
2017-04-17T09:06:07.021Z,10.19
2017-04-17T09:06:47.996Z,10.37
2017-04-17T09:07:28.866Z,10.13
2017-04-17T09:08:09.741Z,10.13
2017-04-17T09:08:50.597Z,10.1
2017-04-17T09:09:31.474Z,9.68